createdAt,value
2022-12-01T00:01:27.190Z,5.91
2022-12-01T00:04:29.101Z,5.86
2022-12-01T00:07:30.916Z,5.85
2022-12-01T00:10:33.688Z,5.83
2022-12-01T00:13:37.348Z,5.85
2022-12-01T00:16:40.549Z,5.83
2022-12-01T00:19:42.302Z,5.92
2022-12-01T00:22:44.764Z,5.80
2022-12-01T00:25:46.408Z,5.75
2022-12-01T00:28:50.986Z,5.81
2022-12-01T00:31:52.742Z,5.79
2022-12-01T00:34:54.600Z,5.86
2022-12-01T00:37:56.455Z,5.83
2022-12-01T00:40:58.211Z,5.75
2022-12-01T00:44:01.260Z,5.75
2022-12-01T00:47:03.012Z,5.68
2022-12-01T00:50:05.456Z,5.78
2022-12-01T00:53:07.122Z,5.79
2022-12-01T00:56:08.894Z,5.68
2022-12-01T00:59:12.006Z,5.70
2022-12-01T01:02:13.732Z,5.64
2022-12-01T01:05:15.658Z,5.61
2022-12-01T01:08:17.308Z,5.57
2022-12-01T01:11:19.024Z,5.62
2022-12-01T01:14:22.407Z,5.57
2022-12-01T01:17:24.021Z,5.53
2022-12-01T01:20:25.805Z,5.60
2022-12-01T01:23:27.525Z,5.40
2022-12-01T01:26:31.239Z,5.52
2022-12-01T01:29:34.317Z,5.57
2022-12-01T01:32:36.007Z,5.62
2022-12-01T01:35:37.720Z,5.35
2022-12-01T01:38:39.501Z,5.29
2022-12-01T01:41:41.079Z,5.36
2022-12-01T01:44:53.150Z,5.35
2022-12-01T01:47:57.710Z,5.40
2022-12-01T01:50:59.946Z,5.39
2022-12-01T01:54:04.582Z,5.18
2022-12-01T01:57:09.280Z,5.18
2022-12-01T02:00:15.396Z,5.19
2022-12-01T02:03:19.966Z,5.12
2022-12-01T02:06:23.592Z,5.13
2022-12-01T02:09:25.497Z,5.29
2022-12-01T02:12:46.842Z,5.17
2022-12-01T02:16:00.477Z,5.18
2022-12-01T02:19:16.307Z,5.14
2022-12-01T02:22:28.453Z,5.13
2022-12-01T02:25:44.711Z,5.13
2022-12-01T02:29:08.709Z,5.24
2022-12-01T02:32:18.771Z,5.23
2022-12-01T02:35:28.631Z,5.22
2022-12-01T02:38:36.008Z,5.18
2022-12-01T02:41:40.764Z,5.16
2022-12-01T02:44:45.303Z,5.22
2022-12-01T02:47:52.236Z,5.08
2022-12-01T02:50:58.017Z,5.23
2022-12-01T02:54:02.708Z,5.12
2022-12-01T02:57:04.397Z,5.02
2022-12-01T03:00:07.568Z,5.05
2022-12-01T03:03:37.284Z,5.12
2022-12-01T03:06:44.126Z,5.24
2022-12-01T03:09:55.432Z,5.18
2022-12-01T03:13:07.386Z,5.05
2022-12-01T03:16:12.807Z,5.09
2022-12-01T03:19:22.400Z,4.99
2022-12-01T03:22:28.930Z,4.95
2022-12-01T03:25:31.956Z,4.94
2022-12-01T03:28:39.027Z,4.93
2022-12-01T03:31:45.746Z,4.97
2022-12-01T03:34:53.266Z,5.04
2022-12-01T03:37:59.286Z,5.10
2022-12-01T03:41:06.700Z,5.02
2022-12-01T03:44:11.801Z,4.94
2022-12-01T03:47:16.898Z,4.91
2022-12-01T03:50:20.241Z,4.96
2022-12-01T03:53:25.874Z,4.85
2022-12-01T03:56:34.478Z,4.83
2022-12-01T03:59:38.558Z,4.91
2022-12-01T04:02:40.659Z,4.87
2022-12-01T04:05:43.917Z,4.74
2022-12-01T04:08:45.590Z,4.80
2022-12-01T04:12:05.842Z,4.70
2022-12-01T04:15:11.030Z,4.72
2022-12-01T04:18:12.907Z,4.76
2022-12-01T04:21:15.959Z,4.64
2022-12-01T04:24:17.673Z,4.73
2022-12-01T04:27:20.140Z,4.73
2022-12-01T04:30:21.825Z,4.61
2022-12-01T04:33:23.498Z,4.64
2022-12-01T04:36:27.704Z,4.65
2022-12-01T04:39:29.482Z,4.65
2022-12-01T04:42:31.442Z,4.54
2022-12-01T04:45:33.097Z,4.51
2022-12-01T04:48:35.947Z,4.51
2022-12-01T04:51:38.977Z,4.61
2022-12-01T04:54:40.634Z,4.60
2022-12-01T04:57:42.310Z,4.60
2022-12-01T05:00:44.002Z,4.47
2022-12-01T05:03:50.739Z,4.35
2022-12-01T05:06:55.576Z,4.42
2022-12-01T05:09:57.412Z,4.41
2022-12-01T05:13:00.209Z,4.47
2022-12-01T05:16:06.480Z,4.26
2022-12-01T05:19:26.820Z,4.34
2022-12-01T05:22:57.226Z,4.46
2022-12-01T05:25:51.752Z,4.40
2022-12-01T05:28:53.577Z,4.40
2022-12-01T05:31:55.300Z,4.35
2022-12-01T05:34:57.029Z,4.32
2022-12-01T05:38:04.589Z,4.39
2022-12-01T05:41:10.189Z,4.31
2022-12-01T05:44:11.857Z,4.30
2022-12-01T05:47:13.506Z,4.31
2022-12-01T05:50:15.170Z,4.23
2022-12-01T05:53:18.696Z,4.19
2022-12-01T05:56:20.597Z,4.21
2022-12-01T05:59:22.338Z,4.27
2022-12-01T06:02:26.724Z,4.21
2022-12-01T06:05:29.126Z,4.22
2022-12-01T06:08:32.280Z,4.21
2022-12-01T06:11:36.918Z,4.21
2022-12-01T06:14:38.902Z,4.12
2022-12-01T06:17:40.771Z,4.09
2022-12-01T06:20:42.417Z,3.97
2022-12-01T06:23:45.495Z,4.02
2022-12-01T06:26:47.150Z,3.96
2022-12-01T06:29:49.734Z,3.89
2022-12-01T06:32:51.724Z,3.98
2022-12-01T06:35:57.930Z,4.05
2022-12-01T06:39:00.932Z,3.89
2022-12-01T06:42:02.778Z,3.85
2022-12-01T06:45:05.415Z,3.88
2022-12-01T06:48:07.157Z,3.88
2022-12-01T06:51:10.940Z,3.96
2022-12-01T06:54:15.123Z,3.95
2022-12-01T06:57:16.880Z,3.91
2022-12-01T07:00:19.144Z,3.98
2022-12-01T07:03:21.035Z,4.02
2022-12-01T07:06:22.803Z,3.96
2022-12-01T07:09:25.808Z,3.76
2022-12-01T07:12:30.218Z,3.79
2022-12-01T07:15:31.889Z,3.77
2022-12-01T07:18:34.626Z,3.84
2022-12-01T07:21:36.392Z,3.76
2022-12-01T07:24:39.446Z,3.88
2022-12-01T07:27:41.148Z,3.88
2022-12-01T07:30:43.040Z,3.77
2022-12-01T07:33:45.018Z,3.74
2022-12-01T07:36:46.674Z,3.78
2022-12-01T07:39:50.013Z,3.88
2022-12-01T07:42:51.871Z,3.88
2022-12-01T07:45:53.597Z,3.79
2022-12-01T07:48:56.249Z,3.93
2022-12-01T07:51:57.939Z,3.98
2022-12-01T07:55:00.997Z,4.01
2022-12-01T07:58:02.697Z,4.04
2022-12-01T08:01:08.158Z,4.15
2022-12-01T08:04:09.976Z,4.11
2022-12-01T08:07:11.638Z,4.06
2022-12-01T08:10:14.762Z,4.24
2022-12-01T08:13:17.561Z,4.27
2022-12-01T08:16:21.061Z,4.20
2022-12-01T08:19:22.718Z,4.41
2022-12-01T08:22:24.394Z,4.45
2022-12-01T08:25:27.675Z,4.47
2022-12-01T08:28:29.658Z,4.61
2022-12-01T08:31:33.226Z,4.40
2022-12-01T08:34:37.188Z,4.50
2022-12-01T08:37:38.812Z,4.49
2022-12-01T08:40:41.843Z,4.32
2022-12-01T08:44:01.068Z,4.33
2022-12-01T08:47:03.257Z,4.53
2022-12-01T08:50:06.534Z,4.43
2022-12-01T08:53:08.161Z,4.40
2022-12-01T08:56:14.519Z,4.47
2022-12-01T08:59:16.193Z,4.27
2022-12-01T09:02:22.303Z,4.22
2022-12-01T09:05:24.232Z,4.29
2022-12-01T09:08:31.970Z,4.32
2022-12-01T09:11:35.069Z,4.36
2022-12-01T09:14:38.738Z,4.48
2022-12-01T09:17:40.455Z,4.58
2022-12-01T09:20:42.101Z,4.60
2022-12-01T09:23:44.140Z,4.58
2022-12-01T09:26:47.274Z,4.59
2022-12-01T09:29:49.227Z,4.51
2022-12-01T09:32:51.132Z,4.49
2022-12-01T09:35:52.905Z,4.37
2022-12-01T09:38:54.685Z,4.53
2022-12-01T09:42:07.623Z,4.67
2022-12-01T09:45:20.969Z,4.69
2022-12-01T09:48:27.794Z,4.70
2022-12-01T09:51:31.100Z,4.52
2022-12-01T09:54:32.847Z,4.48
2022-12-01T09:57:38.387Z,4.53
2022-12-01T10:00:43.659Z,4.48
2022-12-01T10:03:48.380Z,4.40
2022-12-01T10:06:54.357Z,4.49
2022-12-01T10:09:58.521Z,4.47
2022-12-01T10:13:01.676Z,4.54
2022-12-01T10:16:09.369Z,4.65
2022-12-01T10:19:17.579Z,4.59
2022-12-01T10:22:39.682Z,4.68
2022-12-01T10:25:51.838Z,4.70
2022-12-01T10:29:06.498Z,4.78
2022-12-01T10:32:16.836Z,4.83
2022-12-01T10:35:20.571Z,4.87
2022-12-01T10:38:27.225Z,4.76
2022-12-01T10:41:33.819Z,4.77
2022-12-01T10:44:37.014Z,4.88
2022-12-01T10:47:59.074Z,4.72
2022-12-01T10:51:15.310Z,4.91
2022-12-01T10:54:18.780Z,4.81
2022-12-01T10:57:20.615Z,5.02
2022-12-01T11:00:58.164Z,4.75
2022-12-01T11:03:53.363Z,4.97
2022-12-01T11:06:55.293Z,5.12
2022-12-01T11:10:05.882Z,5.21
2022-12-01T11:13:23.868Z,5.21
2022-12-01T11:16:43.507Z,5.44
2022-12-01T11:19:45.227Z,5.21
2022-12-01T11:22:46.922Z,5.41
2022-12-01T11:25:58.218Z,5.51
2022-12-01T11:29:02.120Z,5.36
2022-12-01T11:32:19.008Z,5.26
2022-12-01T11:35:23.449Z,5.22
2022-12-01T11:38:32.532Z,5.07
2022-12-01T11:41:37.934Z,5.21
2022-12-01T11:44:53.265Z,4.97
2022-12-01T11:48:02.114Z,5.03
2022-12-01T11:51:07.901Z,5.10
2022-12-01T11:54:15.735Z,4.94
2022-12-01T11:57:33.638Z,4.92
2022-12-01T12:00:49.901Z,5.08
2022-12-01T12:04:04.413Z,5.17
2022-12-01T12:07:13.477Z,4.97
2022-12-01T12:10:31.107Z,4.71
2022-12-01T12:13:49.714Z,4.66
2022-12-01T12:17:07.093Z,4.73
2022-12-01T12:20:27.516Z,4.70
2022-12-01T12:23:48.133Z,4.89
2022-12-01T12:26:56.449Z,5.19
2022-12-01T12:30:09.318Z,5.20
2022-12-01T12:33:29.766Z,5.19
2022-12-01T12:36:43.418Z,5.29
2022-12-01T12:40:02.308Z,5.24
2022-12-01T12:43:18.796Z,5.26
2022-12-01T12:46:31.343Z,5.29
2022-12-01T12:49:42.108Z,5.32
2022-12-01T12:52:47.895Z,5.25
2022-12-01T12:55:52.766Z,5.45
2022-12-01T12:58:58.152Z,5.14
2022-12-01T13:02:10.601Z,5.23
2022-12-01T13:05:18.338Z,5.36
2022-12-01T13:08:24.134Z,5.37
2022-12-01T13:11:31.539Z,5.33
2022-12-01T13:14:36.909Z,5.39
2022-12-01T13:17:42.628Z,5.18
2022-12-01T13:20:44.513Z,5.29
2022-12-01T13:23:49.578Z,5.24
2022-12-01T13:26:53.419Z,5.33
2022-12-01T13:29:56.290Z,5.14
2022-12-01T13:33:01.153Z,5.17
2022-12-01T13:36:44.575Z,5.37
2022-12-01T13:39:36.763Z,5.77
2022-12-01T13:42:39.822Z,6.17
2022-12-01T13:45:42.192Z,5.95
2022-12-01T13:48:52.017Z,5.89
2022-12-01T13:52:16.871Z,5.54
2022-12-01T13:55:28.572Z,5.68
2022-12-01T13:58:46.364Z,5.51
2022-12-01T14:01:48.308Z,5.50
2022-12-01T14:04:50.511Z,5.58
2022-12-01T14:07:53.507Z,5.46
2022-12-01T14:10:59.671Z,5.35
2022-12-01T14:14:09.912Z,5.46
2022-12-01T14:17:26.223Z,5.37
2022-12-01T14:20:30.913Z,5.32
2022-12-01T14:23:34.689Z,5.38
2022-12-01T14:26:45.218Z,5.43
2022-12-01T14:29:47.410Z,5.31
2022-12-01T14:32:49.224Z,5.27
2022-12-01T14:35:52.147Z,5.27
2022-12-01T14:39:02.016Z,5.32
2022-12-01T14:42:38.380Z,5.27
2022-12-01T14:45:47.199Z,5.28
2022-12-01T14:48:50.663Z,5.24
2022-12-01T14:51:58.586Z,5.11
2022-12-01T14:55:03.602Z,5.06
2022-12-01T14:58:13.603Z,5.02
2022-12-01T15:01:15.571Z,4.97
2022-12-01T15:04:17.960Z,5.01
2022-12-01T15:07:21.033Z,4.88
2022-12-01T15:10:24.876Z,4.80
2022-12-01T15:13:30.782Z,4.77
2022-12-01T15:16:40.754Z,4.68
2022-12-01T15:19:43.937Z,4.68
2022-12-01T15:22:45.683Z,4.53
2022-12-01T15:25:47.458Z,4.48
2022-12-01T15:28:51.210Z,4.50
2022-12-01T15:31:54.932Z,4.47
2022-12-01T15:35:01.712Z,4.51
2022-12-01T15:38:04.098Z,4.50
2022-12-01T15:41:28.467Z,4.53
2022-12-01T15:44:32.086Z,4.63
2022-12-01T15:47:36.024Z,4.61
2022-12-01T15:50:58.805Z,4.55
2022-12-01T15:54:02.069Z,4.44
2022-12-01T15:57:05.688Z,4.31
2022-12-01T16:00:18.697Z,4.17
2022-12-01T16:03:20.554Z,4.11
2022-12-01T16:06:25.134Z,4.05
2022-12-01T16:09:31.430Z,4.05
2022-12-01T16:12:36.723Z,4.11
2022-12-01T16:15:44.149Z,4.12
2022-12-01T16:18:53.504Z,4.18
2022-12-01T16:22:00.471Z,4.20
2022-12-01T16:25:02.291Z,4.15
2022-12-01T16:28:06.337Z,4.18
2022-12-01T16:31:18.612Z,4.20
2022-12-01T16:34:44.473Z,4.13
2022-12-01T16:37:45.797Z,4.18
2022-12-01T16:40:48.793Z,4.20
2022-12-01T16:44:12.826Z,4.28
2022-12-01T16:47:17.180Z,4.39
2022-12-01T16:50:20.594Z,4.35
2022-12-01T16:53:22.284Z,4.42
2022-12-01T16:56:23.964Z,4.39
2022-12-01T16:59:26.032Z,4.45
2022-12-01T17:02:29.162Z,4.39
2022-12-01T17:05:31.242Z,4.39
2022-12-01T17:08:33.403Z,4.47
2022-12-01T17:11:35.677Z,4.54
2022-12-01T17:14:37.399Z,4.65
2022-12-01T17:17:40.499Z,4.68
2022-12-01T17:20:42.712Z,4.71
2022-12-01T17:23:44.532Z,4.77
2022-12-01T17:26:46.207Z,4.72
2022-12-01T17:29:48.143Z,4.77
2022-12-01T17:32:51.325Z,4.75
2022-12-01T17:35:53.034Z,4.67
2022-12-01T17:38:54.790Z,4.62
2022-12-01T17:41:56.996Z,4.58
2022-12-01T17:44:58.728Z,4.61
2022-12-01T17:48:01.802Z,4.70
2022-12-01T17:51:04.582Z,4.66
2022-12-01T17:54:06.462Z,4.72
2022-12-01T17:57:08.176Z,4.70
2022-12-01T18:00:11.109Z,4.76
2022-12-01T18:03:14.231Z,4.67
2022-12-01T18:06:16.847Z,4.69
2022-12-01T18:09:18.860Z,4.57
2022-12-01T18:12:20.578Z,4.62
2022-12-01T18:15:24.877Z,4.67
2022-12-01T18:18:27.994Z,4.66
2022-12-01T18:21:30.045Z,4.54
2022-12-01T18:24:31.753Z,4.58
2022-12-01T18:27:33.434Z,4.57
2022-12-01T18:30:35.135Z,4.52
2022-12-01T18:33:40.589Z,4.44
2022-12-01T18:36:42.347Z,4.42
2022-12-01T18:39:44.049Z,4.36
2022-12-01T18:42:46.588Z,4.40
2022-12-01T18:45:48.383Z,4.39
2022-12-01T18:48:53.045Z,4.55
2022-12-01T18:51:54.707Z,4.57
2022-12-01T18:54:56.408Z,4.47
2022-12-01T18:57:58.065Z,4.70
2022-12-01T19:01:00.973Z,4.52
2022-12-01T19:04:05.190Z,4.43
2022-12-01T19:07:06.928Z,4.47
2022-12-01T19:10:10.130Z,4.31
2022-12-01T19:13:11.935Z,4.34
2022-12-01T19:16:16.112Z,4.38
2022-12-01T19:19:19.315Z,4.40
2022-12-01T19:22:21.725Z,4.43
2022-12-01T19:25:23.399Z,4.55
2022-12-01T19:28:25.055Z,4.62
2022-12-01T19:31:26.773Z,4.54
2022-12-01T19:34:29.974Z,4.42
2022-12-01T19:37:32.234Z,4.44
2022-12-01T19:40:34.061Z,4.42
2022-12-01T19:43:36.250Z,4.41
2022-12-01T19:46:38.098Z,4.41
2022-12-01T19:49:42.197Z,4.51
2022-12-01T19:52:43.913Z,4.51
2022-12-01T19:55:45.578Z,4.47
2022-12-01T19:58:47.312Z,4.48
2022-12-01T20:01:49.511Z,4.38
2022-12-01T20:04:52.812Z,4.35
2022-12-01T20:07:54.699Z,4.31
2022-12-01T20:10:58.305Z,4.29
2022-12-01T20:14:00.134Z,4.24
2022-12-01T20:17:01.964Z,4.27
2022-12-01T20:20:06.474Z,4.27
2022-12-01T20:23:08.179Z,4.34
2022-12-01T20:26:10.551Z,4.30
2022-12-01T20:29:14.736Z,4.18
2022-12-01T20:32:21.981Z,4.06
2022-12-01T20:35:26.404Z,3.97
2022-12-01T20:38:28.083Z,3.96
2022-12-01T20:41:29.787Z,3.89
2022-12-01T20:44:31.496Z,3.99
2022-12-01T20:47:36.534Z,4.03
2022-12-01T20:50:39.782Z,3.97
2022-12-01T20:53:50.710Z,3.85
2022-12-01T20:57:03.746Z,3.81
2022-12-01T21:00:06.710Z,3.70
2022-12-01T21:03:08.333Z,3.75
2022-12-01T21:06:13.486Z,3.70
2022-12-01T21:09:15.510Z,3.84
2022-12-01T21:12:36.194Z,3.87
2022-12-01T21:15:48.300Z,3.82
2022-12-01T21:18:52.323Z,3.78
2022-12-01T21:21:55.560Z,3.76
2022-12-01T21:25:03.601Z,3.75
2022-12-01T21:28:19.167Z,3.79
2022-12-01T21:31:20.982Z,3.71
2022-12-01T21:34:24.780Z,3.68
2022-12-01T21:37:28.470Z,3.67
2022-12-01T21:40:30.807Z,3.68
2022-12-01T21:43:36.776Z,3.74
2022-12-01T21:46:41.944Z,3.76
2022-12-01T21:49:45.078Z,3.80
2022-12-01T21:52:48.251Z,3.76
2022-12-01T21:55:50.192Z,3.78
2022-12-01T21:58:52.179Z,3.79
2022-12-01T22:01:56.421Z,3.84
2022-12-01T22:04:59.417Z,3.79
2022-12-01T22:08:13.947Z,3.74
2022-12-01T22:11:18.994Z,3.66
2022-12-01T22:14:23.938Z,3.63
2022-12-01T22:17:25.611Z,3.65
2022-12-01T22:20:27.977Z,3.70
2022-12-01T22:23:35.620Z,3.60
2022-12-01T22:26:38.696Z,3.48
2022-12-01T22:29:43.278Z,3.31
2022-12-01T22:32:53.993Z,3.24
2022-12-01T22:35:55.791Z,3.17
2022-12-01T22:38:58.851Z,3.08
2022-12-01T22:42:07.671Z,3.20
2022-12-01T22:45:21.976Z,3.18
2022-12-01T22:48:33.447Z,3.16
2022-12-01T22:51:42.078Z,3.11
2022-12-01T22:54:46.783Z,3.01
2022-12-01T22:57:48.534Z,2.88
2022-12-01T23:00:50.209Z,2.96
2022-12-01T23:03:55.601Z,3.05
2022-12-01T23:06:58.357Z,3.26
2022-12-01T23:10:07.138Z,3.32
2022-12-01T23:13:14.007Z,3.23
2022-12-01T23:16:15.757Z,3.36
2022-12-01T23:19:17.462Z,3.33
2022-12-01T23:22:20.094Z,3.20
2022-12-01T23:25:24.377Z,3.13
2022-12-01T23:28:26.161Z,3.11
2022-12-01T23:31:29.696Z,2.92
2022-12-01T23:34:31.496Z,2.73
2022-12-01T23:37:36.335Z,2.73
2022-12-01T23:40:39.309Z,2.63
2022-12-01T23:43:43.484Z,2.60
2022-12-01T23:46:45.963Z,2.65
2022-12-01T23:49:50.118Z,2.73
2022-12-01T23:52:52.379Z,2.77
2022-12-01T23:55:56.461Z,2.78
2022-12-01T23:59:00.726Z,2.84
